createdAt,value
2022-09-12T00:01:06.983Z,19.02
2022-09-12T00:03:33.413Z,18.69
2022-09-12T00:06:08.018Z,18.51
2022-09-12T00:08:34.595Z,18.62
2022-09-12T00:11:01.644Z,19.07
2022-09-12T00:13:28.570Z,19.32
2022-09-12T00:16:02.348Z,19.22
2022-09-12T00:18:29.129Z,19.12
2022-09-12T00:20:57.774Z,18.91
2022-09-12T00:23:24.587Z,18.88
2022-09-12T00:26:01.280Z,19.03
2022-09-12T00:28:28.086Z,18.66
2022-09-12T00:31:02.133Z,18.44
2022-09-12T00:33:28.716Z,18.40
2022-09-12T00:35:56.039Z,18.59
2022-09-12T00:38:22.828Z,18.56
2022-09-12T00:40:49.571Z,18.37
2022-09-12T00:43:16.276Z,18.23
2022-09-12T00:45:42.831Z,18.18
2022-09-12T00:48:10.064Z,18.16
2022-09-12T00:50:36.973Z,18.38
2022-09-12T00:53:03.541Z,18.63
2022-09-12T00:55:30.460Z,18.48
2022-09-12T00:57:58.142Z,18.07
2022-09-12T01:00:24.785Z,17.96
2022-09-12T01:02:54.449Z,18.03
2022-09-12T01:05:28.546Z,17.67
2022-09-12T01:07:55.326Z,18.08
2022-09-12T01:10:22.683Z,18.14
2022-09-12T01:12:49.262Z,18.01
2022-09-12T01:15:15.951Z,18.14
2022-09-12T01:17:42.495Z,18.51
2022-09-12T01:20:09.298Z,18.54
2022-09-12T01:22:36.279Z,18.44
2022-09-12T01:25:02.702Z,18.51
2022-09-12T01:27:29.972Z,18.31
2022-09-12T01:29:56.762Z,17.95
2022-09-12T01:32:24.275Z,17.70
2022-09-12T01:34:51.316Z,17.80
2022-09-12T01:37:17.777Z,18.64
2022-09-12T01:39:46.730Z,18.63
2022-09-12T01:42:13.933Z,18.48
2022-09-12T01:44:40.729Z,18.10
2022-09-12T01:47:07.568Z,17.95
2022-09-12T01:49:38.951Z,18.31
2022-09-12T01:52:05.401Z,18.86
2022-09-12T01:54:34.742Z,19.35
2022-09-12T01:57:01.381Z,19.34
2022-09-12T01:59:29.045Z,18.84
2022-09-12T02:01:56.624Z,18.74
2022-09-12T02:04:23.799Z,18.30
2022-09-12T02:06:51.048Z,18.37
2022-09-12T02:09:17.812Z,18.37
2022-09-12T02:11:45.643Z,18.45
2022-09-12T02:14:12.418Z,18.10
2022-09-12T02:16:39.932Z,17.97
2022-09-12T02:19:08.726Z,17.95
2022-09-12T02:21:36.056Z,17.86
2022-09-12T02:24:02.887Z,18.01
2022-09-12T02:26:31.801Z,18.32
2022-09-12T02:28:59.135Z,17.98
2022-09-12T02:34:06.048Z,17.86
2022-09-12T02:36:33.682Z,17.74
2022-09-12T02:39:00.496Z,17.63
2022-09-12T02:41:27.981Z,17.57
2022-09-12T02:43:54.659Z,17.36
2022-09-12T02:46:21.168Z,17.44
2022-09-12T02:48:50.713Z,17.80
2022-09-12T02:51:21.498Z,18.64
2022-09-12T02:53:51.011Z,18.37
2022-09-12T02:56:18.021Z,18.59
2022-09-12T02:58:45.408Z,18.49
2022-09-12T03:01:12.316Z,18.42
2022-09-12T03:03:43.355Z,18.32
2022-09-12T03:06:10.461Z,18.43
2022-09-12T03:08:36.897Z,18.55
2022-09-12T03:11:03.354Z,18.82
2022-09-12T03:13:30.392Z,19.23
2022-09-12T03:15:57.236Z,19.52
2022-09-12T03:18:25.069Z,19.51
2022-09-12T03:20:52.715Z,19.05
2022-09-12T03:23:19.727Z,18.58
2022-09-12T03:25:47.115Z,19.03
2022-09-12T03:28:13.969Z,19.09
2022-09-12T03:30:40.960Z,19.30
2022-09-12T03:33:07.976Z,18.98
2022-09-12T03:35:38.260Z,18.80
2022-09-12T03:38:04.739Z,18.75
2022-09-12T03:40:32.231Z,18.93
2022-09-12T03:42:58.862Z,18.61
2022-09-12T03:45:26.162Z,19.20
2022-09-12T03:47:53.042Z,19.66
2022-09-12T03:50:19.666Z,19.61
2022-09-12T03:52:53.823Z,19.33
2022-09-12T03:55:20.462Z,18.88
2022-09-12T03:57:47.274Z,18.84
2022-09-12T04:00:19.546Z,18.88
2022-09-12T04:02:46.656Z,18.85
2022-09-12T04:05:13.452Z,18.83
2022-09-12T04:07:40.419Z,18.40
2022-09-12T04:10:09.743Z,18.25
2022-09-12T04:12:36.637Z,19.03
2022-09-12T04:15:10.875Z,18.88
2022-09-12T04:17:44.976Z,18.85
2022-09-12T04:20:11.637Z,18.81
2022-09-12T04:22:38.451Z,18.52
2022-09-12T04:25:05.275Z,18.24
2022-09-12T04:27:31.750Z,17.78
2022-09-12T04:29:58.838Z,17.86
2022-09-12T04:32:25.889Z,17.73
2022-09-12T04:34:53.974Z,18.04
2022-09-12T04:37:22.984Z,18.07
2022-09-12T04:39:50.945Z,17.83
2022-09-12T04:42:17.720Z,17.31
2022-09-12T04:44:44.346Z,17.73
2022-09-12T04:47:11.249Z,17.84
2022-09-12T04:52:41.973Z,17.56
2022-09-12T04:55:08.545Z,17.46
2022-09-12T04:57:40.019Z,17.55
2022-09-12T05:00:07.301Z,17.49
2022-09-12T05:02:34.613Z,17.35
2022-09-12T05:05:02.039Z,17.37
2022-09-12T05:07:35.875Z,17.01
2022-09-12T05:10:07.133Z,16.97
2022-09-12T05:12:35.736Z,16.82
2022-09-12T05:15:02.586Z,17.07
2022-09-12T05:17:29.603Z,17.03
2022-09-12T05:19:56.482Z,17.26
2022-09-12T05:22:30.548Z,17.40
2022-09-12T05:24:57.437Z,17.30
2022-09-12T05:27:24.844Z,17.63
2022-09-12T05:29:51.550Z,17.64
2022-09-12T05:32:18.121Z,17.73
2022-09-12T05:34:45.957Z,18.00
2022-09-12T05:37:16.707Z,18.22
2022-09-12T05:39:45.786Z,18.17
2022-09-12T05:42:12.771Z,18.45
2022-09-12T05:44:39.442Z,18.22
2022-09-12T05:47:05.959Z,18.29
2022-09-12T05:49:34.277Z,19.00
2022-09-12T05:52:01.100Z,18.95
2022-09-12T05:54:31.698Z,18.91
2022-09-12T05:57:00.824Z,18.87
2022-09-12T05:59:27.551Z,18.64
2022-09-12T06:01:55.556Z,18.58
2022-09-12T06:04:22.298Z,18.55
2022-09-12T06:06:49.392Z,18.63
2022-09-12T06:09:16.348Z,18.69
2022-09-12T06:11:43.742Z,18.96
2022-09-12T06:14:10.739Z,19.23
2022-09-12T06:16:38.546Z,18.90
2022-09-12T06:19:05.772Z,19.13
2022-09-12T06:21:33.221Z,19.48
2022-09-12T06:23:59.816Z,19.75
2022-09-12T06:26:28.726Z,20.09
2022-09-12T08:18:28.703Z,21.89
2022-09-12T08:20:56.763Z,21.86
2022-09-12T08:23:31.371Z,21.55
2022-09-12T08:25:58.224Z,20.95
2022-09-12T08:28:26.896Z,20.94
2022-09-12T08:30:56.083Z,21.55
2022-09-12T08:39:33.996Z,21.72
2022-09-12T08:45:00.468Z,21.95
2022-09-12T08:47:28.014Z,22.05
2022-09-12T08:49:55.078Z,22.15
2022-09-12T08:52:22.313Z,22.01
2022-09-12T08:54:49.355Z,21.75
2022-09-12T08:57:16.198Z,21.70
2022-09-12T08:59:42.841Z,21.48
2022-09-12T09:02:09.799Z,21.72
2022-09-12T09:04:40.098Z,21.85
2022-09-12T09:07:09.657Z,22.34
2022-09-12T09:09:39.229Z,22.50
2022-09-12T09:15:15.554Z,22.32
2022-09-12T09:17:46.524Z,22.36
2022-09-12T09:20:14.947Z,22.37
2022-09-12T09:22:41.640Z,22.35
2022-09-12T09:25:08.795Z,22.33
2022-09-12T09:27:41.031Z,22.38
2022-09-12T09:32:56.965Z,22.71
2022-09-12T09:35:24.432Z,22.88
2022-09-12T09:37:54.545Z,22.89
2022-09-12T09:40:25.342Z,23.22
2022-09-12T09:42:52.057Z,23.14
2022-09-12T09:45:21.625Z,22.78
2022-09-12T09:47:48.705Z,22.17
2022-09-12T09:50:15.336Z,22.29
2022-09-12T09:52:41.925Z,22.03
2022-09-12T09:55:08.742Z,22.38
2022-09-12T09:57:36.067Z,22.56
2022-09-12T10:00:02.776Z,22.81
2022-09-12T10:02:33.874Z,22.73
2022-09-12T10:05:00.744Z,23.20
2022-09-12T10:07:28.268Z,22.89
2022-09-12T10:09:57.308Z,22.51
2022-09-12T10:12:23.966Z,23.19
2022-09-12T10:14:51.434Z,23.12
2022-09-12T10:17:18.342Z,22.78
2022-09-12T10:19:55.963Z,23.09
2022-09-12T10:22:31.600Z,22.86
2022-09-12T10:25:00.117Z,23.30
2022-09-12T10:27:30.775Z,23.63
2022-09-12T10:29:58.069Z,23.03
2022-09-12T10:32:29.985Z,23.04
2022-09-12T10:34:57.809Z,23.11
2022-09-12T10:37:24.715Z,23.30
2022-09-12T10:39:58.856Z,22.88
2022-09-12T10:42:25.685Z,22.81
2022-09-12T10:44:54.866Z,23.16
2022-09-12T10:47:21.697Z,23.44
2022-09-12T10:49:50.703Z,23.30
2022-09-12T10:52:24.822Z,23.19
2022-09-12T10:55:01.540Z,23.64
2022-09-12T10:57:28.883Z,22.99
2022-09-12T10:59:56.136Z,23.11
2022-09-12T11:02:22.974Z,22.90
2022-09-12T11:04:49.637Z,23.50
2022-09-12T11:07:16.943Z,23.65
2022-09-12T11:09:45.576Z,23.93
2022-09-12T11:12:21.363Z,24.10
2022-09-12T11:14:48.312Z,23.99
2022-09-12T11:17:18.785Z,23.93
2022-09-12T11:19:47.040Z,23.66
2022-09-12T11:22:14.221Z,24.15
2022-09-12T11:24:42.950Z,24.26
2022-09-12T11:27:13.530Z,23.84
2022-09-12T11:29:41.000Z,24.37
2022-09-12T11:32:13.208Z,23.71
2022-09-12T11:34:40.725Z,23.95
2022-09-12T11:37:11.432Z,24.19
2022-09-12T11:39:41.260Z,24.74
2022-09-12T11:42:08.286Z,24.90
2022-09-12T11:44:40.030Z,24.60
2022-09-12T11:47:09.443Z,24.67
2022-09-12T11:52:17.155Z,24.56
2022-09-12T11:54:44.847Z,24.76
2022-09-12T11:57:11.851Z,24.65
2022-09-12T11:59:38.756Z,24.11
2022-09-12T12:02:05.509Z,23.97
2022-09-12T12:04:34.267Z,24.67
2022-09-12T12:07:01.070Z,25.01
2022-09-12T12:09:28.593Z,24.78
2022-09-12T12:11:55.331Z,24.96
2022-09-12T12:14:25.749Z,24.93
2022-09-12T12:16:54.506Z,25.05
2022-09-12T12:19:22.575Z,24.46
2022-09-12T12:21:51.707Z,24.75
2022-09-12T12:24:20.679Z,25.08
2022-09-12T12:26:47.849Z,25.16
2022-09-12T12:29:15.537Z,24.87
2022-09-12T12:31:42.389Z,25.28
2022-09-12T12:34:09.760Z,25.21
2022-09-12T12:36:40.229Z,25.58
2022-09-12T12:39:11.899Z,25.69
2022-09-12T12:41:38.573Z,25.62
2022-09-12T12:44:05.846Z,25.50
2022-09-12T12:46:33.381Z,25.36
2022-09-12T12:49:00.354Z,25.22
2022-09-12T12:51:35.386Z,25.50
2022-09-12T12:54:03.855Z,24.80
2022-09-12T12:56:32.016Z,25.16
2022-09-12T12:58:59.412Z,25.39
2022-09-12T13:01:26.249Z,25.79
2022-09-12T13:03:53.117Z,25.94
2022-09-12T13:06:20.432Z,26.09
2022-09-12T13:08:54.059Z,25.79
2022-09-12T13:11:21.522Z,26.12
2022-09-12T13:13:50.693Z,26.07
2022-09-12T13:16:17.292Z,26.24
2022-09-12T13:18:47.491Z,26.30
2022-09-12T13:21:14.474Z,26.41
2022-09-12T13:23:41.792Z,26.68
2022-09-12T13:26:11.326Z,26.74
2022-09-12T13:28:37.952Z,26.53
2022-09-12T13:31:05.538Z,26.23
2022-09-12T13:33:32.972Z,26.28
2022-09-12T13:35:59.573Z,26.47
2022-09-12T13:38:31.596Z,26.23
2022-09-12T13:41:00.261Z,26.03
2022-09-12T13:43:27.315Z,26.26
2022-09-12T13:45:54.303Z,26.41
2022-09-12T13:48:21.916Z,26.73
2022-09-12T13:50:49.229Z,26.23
2022-09-12T13:53:17.953Z,26.27
2022-09-12T13:55:54.350Z,26.28
2022-09-12T13:58:20.993Z,26.75
2022-09-12T14:00:48.345Z,27.28
2022-09-12T14:03:17.221Z,26.91
2022-09-12T14:08:14.561Z,27.14
2022-09-12T14:10:49.295Z,27.16
2022-09-12T14:13:17.353Z,27.39
2022-09-12T14:15:45.642Z,27.03
2022-09-12T14:18:12.621Z,27.07
2022-09-12T14:20:43.430Z,27.46
2022-09-12T14:23:10.418Z,27.56
2022-09-12T14:28:23.727Z,27.20
2022-09-12T14:30:50.815Z,27.50
2022-09-12T14:33:19.968Z,27.45
2022-09-12T14:35:49.052Z,27.87
2022-09-12T14:38:15.674Z,27.60
2022-09-12T14:40:42.671Z,27.53
2022-09-12T14:43:10.838Z,27.68
2022-09-12T14:45:39.624Z,27.28
2022-09-12T14:50:47.176Z,27.29
2022-09-12T14:53:14.073Z,27.17
2022-09-12T14:55:40.730Z,27.37
2022-09-12T14:58:11.932Z,27.77
2022-09-12T15:00:38.937Z,27.88
2022-09-12T15:03:07.502Z,28.12
2022-09-12T15:05:37.982Z,27.33
2022-09-12T15:10:47.925Z,27.10
2022-09-12T15:13:15.470Z,26.50
2022-09-12T15:18:26.952Z,27.19
2022-09-12T15:20:54.693Z,26.30
2022-09-12T15:23:23.845Z,26.13
2022-09-12T15:25:51.404Z,26.67
2022-09-12T15:28:20.187Z,27.02
2022-09-12T15:30:46.756Z,27.24
2022-09-12T15:33:13.777Z,27.44
2022-09-12T15:35:42.215Z,27.26
2022-09-12T15:38:09.086Z,27.48
2022-09-12T15:40:37.684Z,27.81
2022-09-12T15:43:04.506Z,27.54
2022-09-12T15:45:31.557Z,27.90
2022-09-12T15:48:01.905Z,27.53
2022-09-12T15:50:32.228Z,27.32
2022-09-12T15:53:02.294Z,27.23
2022-09-12T15:55:28.963Z,27.62
2022-09-12T15:57:55.774Z,27.96
2022-09-12T16:00:26.652Z,27.97
2022-09-12T16:02:53.658Z,28.11
2022-09-12T16:05:20.982Z,28.03
2022-09-12T16:07:47.731Z,27.84
2022-09-12T16:10:14.387Z,28.01
2022-09-12T16:12:45.286Z,28.03
2022-09-12T16:15:13.672Z,28.02
2022-09-12T16:17:47.649Z,27.62
2022-09-12T16:20:16.845Z,27.73
2022-09-12T16:22:43.612Z,28.13
2022-09-12T16:25:10.781Z,27.99
2022-09-12T16:27:39.048Z,28.10
2022-09-12T16:30:06.618Z,28.05
2022-09-12T16:32:34.066Z,27.83
2022-09-12T16:35:01.500Z,27.82
2022-09-12T16:37:30.433Z,27.88
2022-09-12T16:39:57.103Z,27.53
2022-09-12T16:42:30.526Z,27.80
2022-09-12T16:44:57.942Z,27.91
2022-09-12T16:47:25.588Z,27.67
2022-09-12T16:49:53.872Z,27.82
2022-09-12T16:52:21.399Z,27.83
2022-09-12T16:57:53.273Z,27.56
2022-09-12T17:00:20.128Z,27.61
2022-09-12T17:02:49.598Z,27.59
2022-09-12T17:05:16.728Z,27.75
2022-09-12T17:07:43.514Z,27.72
2022-09-12T17:10:23.222Z,27.60
2022-09-12T17:12:58.991Z,27.60
2022-09-12T17:15:27.301Z,27.19
2022-09-12T17:20:38.076Z,25.95
2022-09-12T17:23:09.524Z,26.07
2022-09-12T17:25:38.136Z,26.43
2022-09-12T17:28:14.274Z,26.29
2022-09-12T17:30:50.925Z,25.32
2022-09-12T17:33:27.183Z,25.49
2022-09-12T17:35:55.973Z,26.21
2022-09-12T17:38:25.236Z,26.42
2022-09-12T17:43:21.662Z,26.09
2022-09-12T17:45:48.337Z,25.62
2022-09-12T17:48:15.763Z,25.20
2022-09-12T17:50:42.375Z,25.78
2022-09-12T17:53:17.433Z,26.16
2022-09-12T17:55:45.985Z,25.90
2022-09-12T17:58:12.957Z,25.49
2022-09-12T18:00:40.258Z,25.25
2022-09-12T18:03:12.167Z,25.47
2022-09-12T18:05:42.563Z,25.93
2022-09-12T18:08:10.194Z,25.98
2022-09-12T18:10:40.362Z,25.96
2022-09-12T18:13:09.501Z,25.16
2022-09-12T18:15:36.757Z,24.93
2022-09-12T18:18:03.699Z,25.21
2022-09-12T18:23:18.119Z,25.86
2022-09-12T18:25:47.201Z,25.81
2022-09-12T18:28:13.998Z,25.75
2022-09-12T18:30:40.524Z,25.82
2022-09-12T18:33:06.956Z,25.83
2022-09-12T18:35:33.482Z,25.79
2022-09-12T18:38:00.117Z,25.62
2022-09-12T18:40:26.796Z,25.54
2022-09-12T18:42:53.935Z,25.42
2022-09-12T18:45:20.691Z,25.30
2022-09-12T18:47:48.175Z,25.31
2022-09-12T18:50:15.178Z,25.43
2022-09-12T18:52:41.720Z,25.35
2022-09-12T18:55:08.550Z,25.31
2022-09-12T18:57:35.353Z,25.21
2022-09-12T19:00:07.258Z,25.28
2022-09-12T19:02:35.968Z,25.30
2022-09-12T19:05:10.739Z,25.14
2022-09-12T19:07:38.093Z,25.19
2022-09-12T19:10:04.969Z,25.17
2022-09-12T19:12:31.803Z,25.15
2022-09-12T19:14:58.608Z,25.11
2022-09-12T19:17:28.223Z,24.78
2022-09-12T19:19:57.271Z,24.86
2022-09-12T19:22:31.540Z,24.81
2022-09-12T19:24:58.694Z,24.78
2022-09-12T19:27:25.449Z,24.51
2022-09-12T19:29:52.165Z,24.20
2022-09-12T19:32:19.710Z,24.32
2022-09-12T19:34:46.975Z,24.40
2022-09-12T19:37:13.388Z,24.59
2022-09-12T19:39:40.677Z,24.70
2022-09-12T19:42:14.470Z,24.71
2022-09-12T19:44:40.992Z,24.35
2022-09-12T19:47:08.211Z,24.35
2022-09-12T19:49:34.695Z,24.63
2022-09-12T19:52:01.672Z,23.90
2022-09-12T19:54:28.101Z,24.02
2022-09-12T19:56:57.101Z,24.23
2022-09-12T19:59:23.820Z,24.34
2022-09-12T20:01:50.581Z,24.44
2022-09-12T20:04:17.158Z,24.46
2022-09-12T20:06:43.674Z,23.60
2022-09-12T20:09:10.398Z,23.95
2022-09-12T20:11:37.015Z,23.66
2022-09-12T20:14:03.526Z,23.66
2022-09-12T20:16:30.337Z,23.26
2022-09-12T20:18:57.041Z,23.61
2022-09-12T20:21:23.552Z,23.86
2022-09-12T20:23:50.085Z,23.86
2022-09-12T20:26:16.586Z,23.68
2022-09-12T20:28:43.353Z,23.41
2022-09-12T20:31:12.002Z,23.28
2022-09-12T20:33:38.734Z,23.40
2022-09-12T20:36:05.508Z,23.64
2022-09-12T20:38:32.770Z,23.85
2022-09-12T20:40:59.292Z,23.68
2022-09-12T20:43:26.089Z,23.31
2022-09-12T20:45:52.587Z,22.55
2022-09-12T20:48:19.009Z,22.23
2022-09-12T20:50:45.666Z,22.76
2022-09-12T21:05:54.526Z,22.26
2022-09-12T21:08:21.737Z,22.37
2022-09-12T21:10:50.488Z,21.62
2022-09-12T21:13:19.548Z,21.28
2022-09-12T21:15:48.393Z,21.70
2022-09-12T21:18:16.914Z,21.24
2022-09-12T21:20:44.364Z,20.95
2022-09-12T21:23:12.153Z,20.67
2022-09-12T21:25:52.232Z,20.56
2022-09-12T21:28:19.838Z,20.72
2022-09-12T21:30:47.282Z,20.79
2022-09-12T21:33:16.542Z,20.90
2022-09-12T21:35:43.156Z,20.94
2022-09-12T21:38:10.569Z,20.89
2022-09-12T21:40:39.087Z,21.50
2022-09-12T21:43:12.319Z,21.53
2022-09-12T21:45:47.142Z,21.54
2022-09-12T21:48:15.397Z,22.03
2022-09-12T21:50:42.295Z,22.11
2022-09-12T21:53:20.100Z,21.89
2022-09-12T21:55:47.043Z,22.07
2022-09-12T21:58:14.699Z,22.00
2022-09-12T22:00:49.192Z,21.96
2022-09-12T22:03:16.381Z,21.98
2022-09-12T22:05:46.941Z,22.08
2022-09-12T22:08:15.515Z,21.99
2022-09-12T22:10:42.260Z,21.54
2022-09-12T22:13:09.154Z,21.76
2022-09-12T22:15:41.351Z,22.01
2022-09-12T22:18:09.917Z,22.26
2022-09-12T22:20:40.427Z,22.20
2022-09-12T22:23:08.912Z,21.88
2022-09-12T22:28:16.161Z,21.57
2022-09-12T22:30:45.217Z,22.09
2022-09-12T22:33:13.701Z,22.29
2022-09-12T22:35:40.497Z,22.30
2022-09-12T22:38:07.901Z,22.15
2022-09-12T22:40:34.767Z,22.07
2022-09-12T22:43:02.313Z,21.82
2022-09-12T22:45:31.594Z,21.53
2022-09-12T22:48:00.740Z,21.19
2022-09-12T22:53:00.570Z,21.50
2022-09-12T22:55:35.871Z,21.67
2022-09-12T22:58:02.919Z,21.94
2022-09-12T23:00:31.957Z,21.56
2022-09-12T23:02:58.964Z,21.48
2022-09-12T23:05:27.450Z,21.54
2022-09-12T23:07:54.413Z,21.66
2022-09-12T23:10:21.215Z,21.72
2022-09-12T23:12:52.609Z,21.46
2022-09-12T23:15:20.958Z,21.23
2022-09-12T23:17:48.345Z,21.36
2022-09-12T23:20:15.966Z,21.55
2022-09-12T23:22:42.848Z,21.95
2022-09-12T23:25:09.662Z,21.47
2022-09-12T23:27:37.015Z,20.68
2022-09-12T23:30:07.571Z,20.51
2022-09-12T23:32:35.307Z,20.48
2022-09-12T23:35:09.422Z,21.03
2022-09-12T23:37:36.126Z,20.49
2022-09-12T23:40:03.301Z,20.43
2022-09-12T23:42:30.676Z,20.31
2022-09-12T23:44:57.411Z,20.86
2022-09-12T23:47:24.495Z,20.60
2022-09-12T23:49:52.922Z,20.45
2022-09-12T23:52:20.065Z,20.01
2022-09-12T23:54:47.543Z,20.29
2022-09-12T23:57:18.825Z,20.35
2022-09-12T23:59:51.516Z,20.84
